createdAt,value
2018-06-11T00:01:19.030Z,14.40
2018-06-11T00:03:47.975Z,12.43
2018-06-11T00:06:16.857Z,13.20
2018-06-11T00:08:45.744Z,14.80
2018-06-11T00:11:14.598Z,14.85
2018-06-11T00:13:43.484Z,14.90
2018-06-11T00:16:12.452Z,14.20
2018-06-11T00:18:41.271Z,14.10
2018-06-11T00:21:10.189Z,14.40
2018-06-11T00:23:39.062Z,13.07
2018-06-11T00:26:07.905Z,13.17
2018-06-11T00:28:36.830Z,13.10
2018-06-11T00:31:05.732Z,14.75
2018-06-11T00:33:34.609Z,14.47
2018-06-11T00:36:03.465Z,14.73
2018-06-11T00:38:32.306Z,14.90
2018-06-11T00:41:01.213Z,13.87
2018-06-11T00:43:30.128Z,12.87
2018-06-11T00:45:59.089Z,12.40
2018-06-11T00:48:28.049Z,11.68
2018-06-11T00:50:57.085Z,13.00
2018-06-11T00:53:26.040Z,12.50
2018-06-11T00:56:06.138Z,11.97
2018-06-11T00:58:35.111Z,13.35
2018-06-11T01:01:04.126Z,13.45
2018-06-11T01:03:33.057Z,12.73
2018-06-11T01:06:01.956Z,12.10
2018-06-11T01:08:30.888Z,12.53
2018-06-11T01:10:59.782Z,12.03
2018-06-11T01:13:28.689Z,12.37
2018-06-11T01:15:57.573Z,11.07
2018-06-11T01:18:26.485Z,12.15
2018-06-11T01:20:58.411Z,12.50
2018-06-11T01:23:27.277Z,11.68
2018-06-11T01:25:56.150Z,10.83
2018-06-11T01:28:25.036Z,10.53
2018-06-11T01:30:53.986Z,10.53
2018-06-11T01:33:22.851Z,10.27
2018-06-11T01:35:51.781Z,9.60
2018-06-11T01:45:56.416Z,8.40
2018-06-11T01:48:25.363Z,9.35
2018-06-11T01:50:54.248Z,8.80
2018-06-11T01:53:23.131Z,7.72
2018-06-11T01:55:52.054Z,8.10
2018-06-11T01:58:21.009Z,6.30
2018-06-11T02:00:49.918Z,7.07
2018-06-11T02:03:18.794Z,7.37
2018-06-11T02:05:47.703Z,7.58
2018-06-11T02:08:16.628Z,7.05
2018-06-11T02:10:45.471Z,8.73
2018-06-11T02:13:14.308Z,7.90
2018-06-11T02:15:43.201Z,7.80
2018-06-11T02:18:13.538Z,7.50
2018-06-11T02:20:42.541Z,7.30
2018-06-11T02:23:11.439Z,7.50
2018-06-11T02:25:41.399Z,7.60
2018-06-11T02:28:10.294Z,7.70
2018-06-11T02:30:39.654Z,7.67
2018-06-11T02:33:08.498Z,7.73
2018-06-11T02:35:37.368Z,7.00
2018-06-11T02:38:06.245Z,8.30
2018-06-11T02:40:35.243Z,7.80
2018-06-11T02:43:04.255Z,7.30
2018-06-11T02:45:33.100Z,7.20
2018-06-11T02:48:01.957Z,7.67
2018-06-11T02:50:30.821Z,6.93
2018-06-11T02:52:59.678Z,7.30
2018-06-11T02:55:28.509Z,6.90
2018-06-11T02:57:57.294Z,7.67
2018-06-11T03:00:26.121Z,6.60
2018-06-11T03:02:55.028Z,6.63
2018-06-11T03:05:23.887Z,6.30
2018-06-11T03:07:52.719Z,7.10
2018-06-11T03:10:21.535Z,5.90
2018-06-11T03:12:50.497Z,6.97
2018-06-11T03:15:19.381Z,5.90
2018-06-11T03:17:48.243Z,5.60
2018-06-11T03:20:17.105Z,6.20
2018-06-11T03:22:45.944Z,5.73
2018-06-11T03:25:14.771Z,5.40
2018-06-11T03:27:43.590Z,5.97
2018-06-11T03:30:12.386Z,5.97
2018-06-11T03:32:44.954Z,5.80
2018-06-11T03:35:14.045Z,6.17
2018-06-11T03:37:42.956Z,5.57
2018-06-11T03:40:11.814Z,4.93
2018-06-11T03:42:40.675Z,6.05
2018-06-11T03:45:09.594Z,5.03
2018-06-11T03:47:38.488Z,6.10
2018-06-11T03:50:07.387Z,5.80
2018-06-11T03:52:39.748Z,5.77
2018-06-11T03:55:08.759Z,5.15
2018-06-11T03:57:37.834Z,5.92
2018-06-11T04:00:06.782Z,5.77
2018-06-11T04:02:35.707Z,6.17
2018-06-11T04:05:04.598Z,6.60
2018-06-11T04:07:33.516Z,6.50
2018-06-11T04:10:02.387Z,5.80
2018-06-11T04:12:31.287Z,6.13
2018-06-11T04:15:00.227Z,5.83
2018-06-11T04:17:29.075Z,5.53
2018-06-11T04:19:58.006Z,6.50
2018-06-11T04:22:26.900Z,6.05
2018-06-11T04:24:55.805Z,5.73
2018-06-11T04:27:25.506Z,5.93
2018-06-11T04:29:54.633Z,6.43
2018-06-11T04:32:23.732Z,6.03
2018-06-11T04:34:52.661Z,6.30
2018-06-11T04:37:22.257Z,5.80
2018-06-11T04:39:51.524Z,5.80
2018-06-11T04:42:20.652Z,6.60
2018-06-11T04:44:50.143Z,6.23
2018-06-11T04:47:19.585Z,6.20
2018-06-11T04:49:48.504Z,6.00
2018-06-11T04:52:17.363Z,6.10
2018-06-11T04:54:47.137Z,5.80
2018-06-11T04:57:15.982Z,5.07
2018-06-11T04:59:46.262Z,5.80
2018-06-11T05:02:15.120Z,6.80
2018-06-11T05:04:45.552Z,6.13
2018-06-11T05:07:14.395Z,6.33
2018-06-11T05:09:43.964Z,6.10
2018-06-11T05:12:12.852Z,5.57
2018-06-11T05:14:41.741Z,6.37
2018-06-11T05:17:10.584Z,6.90
2018-06-11T05:19:40.925Z,5.90
2018-06-11T05:22:09.783Z,5.25
2018-06-11T05:24:40.828Z,5.85
2018-06-11T05:27:09.873Z,6.30
2018-06-11T05:29:38.760Z,5.30
2018-06-11T05:32:07.669Z,5.40
2018-06-11T05:34:36.574Z,6.03
2018-06-11T05:37:05.420Z,4.83
2018-06-11T05:39:34.244Z,5.50
2018-06-11T05:42:03.122Z,4.57
2018-06-11T05:44:32.579Z,5.12
2018-06-11T05:47:02.628Z,4.60
2018-06-11T05:49:31.673Z,4.37
2018-06-11T05:52:00.675Z,4.60
2018-06-11T05:54:29.558Z,4.67
2018-06-11T05:56:59.192Z,4.17
2018-06-11T05:59:28.115Z,4.40
2018-06-11T06:01:58.372Z,3.60
2018-06-11T06:04:27.260Z,3.60
2018-06-11T06:06:56.712Z,3.60
2018-06-11T06:09:26.867Z,3.53
2018-06-11T06:11:55.981Z,3.30
2018-06-11T06:14:24.816Z,3.90
2018-06-11T06:16:53.683Z,3.37
2018-06-11T06:19:22.617Z,3.40
2018-06-11T06:21:51.485Z,3.30
2018-06-11T06:24:20.355Z,3.07
2018-06-11T06:26:49.235Z,3.98
2018-06-11T06:29:18.123Z,3.90
2018-06-11T06:31:47.017Z,4.03
2018-06-11T06:34:16.004Z,3.43
2018-06-11T06:36:44.907Z,3.30
2018-06-11T06:39:13.842Z,3.00
2018-06-11T06:41:42.740Z,3.40
2018-06-11T06:44:11.576Z,4.03
2018-06-11T06:46:40.451Z,3.10
2018-06-11T06:49:09.342Z,3.13
2018-06-11T06:51:38.212Z,3.08
2018-06-11T06:54:07.247Z,4.75
2018-06-11T06:56:36.131Z,3.85
2018-06-11T06:59:04.999Z,3.70
2018-06-11T07:01:33.874Z,3.55
2018-06-11T07:04:02.813Z,4.30
2018-06-11T07:06:31.678Z,4.10
2018-06-11T07:09:00.572Z,3.13
2018-06-11T07:11:29.460Z,3.47
2018-06-11T07:13:58.381Z,3.60
2018-06-11T07:16:27.217Z,3.40
2018-06-11T07:18:56.084Z,2.63
2018-06-11T07:21:25.004Z,3.53
2018-06-11T07:23:53.889Z,3.50
2018-06-11T07:26:22.785Z,3.13
2018-06-11T07:28:51.693Z,3.47
2018-06-11T07:31:20.618Z,2.70
2018-06-11T07:33:49.505Z,2.70
2018-06-11T07:36:18.370Z,3.37
2018-06-11T07:38:47.260Z,3.67
2018-06-11T07:41:16.147Z,3.40
2018-06-11T07:43:45.030Z,3.08
2018-06-11T07:46:14.035Z,3.33
2018-06-11T07:48:43.050Z,3.80
2018-06-11T07:51:11.938Z,2.63
2018-06-11T07:53:44.023Z,3.00
2018-06-11T07:56:12.946Z,3.17
2018-06-11T07:58:41.869Z,4.03
2018-06-11T08:01:10.739Z,3.13
2018-06-11T08:03:39.648Z,3.30
2018-06-11T08:06:08.568Z,3.15
2018-06-11T08:08:37.455Z,3.10
2018-06-11T08:11:06.402Z,3.03
2018-06-11T08:13:35.444Z,3.10
2018-06-11T08:16:04.326Z,3.60
2018-06-11T08:18:33.226Z,3.00
2018-06-11T08:21:02.355Z,3.87
2018-06-11T08:23:31.209Z,3.17
2018-06-11T08:26:00.046Z,3.60
2018-06-11T08:28:28.888Z,4.30
2018-06-11T08:30:57.729Z,3.52
2018-06-11T08:33:26.585Z,3.57
2018-06-11T08:35:55.434Z,2.97
2018-06-11T08:38:24.363Z,2.92
2018-06-11T08:40:53.434Z,4.13
2018-06-11T08:43:22.347Z,4.07
2018-06-11T08:45:51.447Z,3.57
2018-06-11T08:48:21.056Z,3.67
2018-06-11T08:50:49.959Z,3.40
2018-06-11T08:53:18.802Z,3.40
2018-06-11T08:55:47.629Z,3.70
2018-06-11T08:58:16.607Z,4.30
2018-06-11T09:00:45.449Z,3.77
2018-06-11T09:03:14.345Z,3.30
2018-06-11T09:05:43.228Z,3.17
2018-06-11T09:08:12.178Z,3.00
2018-06-11T09:10:41.062Z,3.37
2018-06-11T09:13:10.041Z,3.70
2018-06-11T09:15:38.948Z,3.22
2018-06-11T09:18:07.919Z,3.47
2018-06-11T09:20:36.708Z,4.27
2018-06-11T09:23:05.603Z,4.27
2018-06-11T09:25:34.501Z,4.30
2018-06-11T09:28:03.369Z,3.80
2018-06-11T09:30:32.189Z,4.97
2018-06-11T09:33:01.054Z,5.40
2018-06-11T09:35:29.888Z,4.50
2018-06-11T09:37:58.733Z,4.40
2018-06-11T09:40:27.645Z,4.07
2018-06-11T09:42:56.518Z,4.37
2018-06-11T09:45:25.571Z,5.20
2018-06-11T09:47:54.522Z,5.10
2018-06-11T09:50:23.382Z,5.60
2018-06-11T09:52:52.247Z,4.67
2018-06-11T09:55:22.019Z,4.60
2018-06-11T09:57:50.938Z,4.00
2018-06-11T10:00:25.088Z,4.33
2018-06-11T10:02:53.938Z,5.03
2018-06-11T10:05:22.845Z,4.87
2018-06-11T10:07:51.690Z,4.57
2018-06-11T10:10:20.558Z,4.80
2018-06-11T10:12:49.424Z,5.27
2018-06-11T10:15:18.271Z,5.10
2018-06-11T10:17:47.121Z,5.53
2018-06-11T10:20:16.012Z,6.07
2018-06-11T10:22:44.909Z,6.40
2018-06-11T10:25:13.752Z,6.30
2018-06-11T10:27:42.654Z,5.90
2018-06-11T10:30:11.521Z,6.65
2018-06-11T10:32:40.384Z,6.83
2018-06-11T10:35:09.243Z,5.97
2018-06-11T10:37:38.069Z,5.43
2018-06-11T10:40:06.949Z,4.53
2018-06-11T10:42:35.821Z,4.03
2018-06-11T10:45:04.769Z,3.90
2018-06-11T10:47:33.690Z,4.37
2018-06-11T10:50:02.563Z,3.95
2018-06-11T10:52:31.397Z,3.77
2018-06-11T10:55:00.278Z,3.70
2018-06-11T10:57:29.139Z,4.50
2018-06-11T10:59:57.995Z,4.22
2018-06-11T11:02:26.879Z,4.17
2018-06-11T11:04:55.712Z,3.30
2018-06-11T11:07:24.569Z,3.83
2018-06-11T11:09:53.379Z,4.30
2018-06-11T11:12:22.233Z,4.47
2018-06-11T11:14:51.076Z,4.57
2018-06-11T11:17:19.921Z,3.60
2018-06-11T11:19:48.782Z,4.13
2018-06-11T11:22:17.705Z,3.60
2018-06-11T11:24:46.536Z,3.73
2018-06-11T11:27:15.361Z,4.10
2018-06-11T11:29:44.217Z,3.43
2018-06-11T11:32:13.065Z,3.40
2018-06-11T11:34:41.896Z,3.93
2018-06-11T11:37:10.789Z,3.60
2018-06-11T11:39:39.652Z,3.75
2018-06-11T11:42:08.709Z,3.30
2018-06-11T11:44:37.755Z,3.90
2018-06-11T11:47:06.645Z,3.33
2018-06-11T11:49:35.645Z,3.97
2018-06-11T11:52:04.508Z,3.70
2018-06-11T11:54:33.356Z,3.77
2018-06-11T11:57:02.232Z,4.23
2018-06-11T11:59:31.109Z,4.27
2018-06-11T12:01:59.934Z,3.93
2018-06-11T12:04:28.786Z,4.30
2018-06-11T12:06:57.678Z,4.07
2018-06-11T12:09:26.525Z,4.23
2018-06-11T12:11:55.392Z,4.63
2018-06-11T12:14:24.297Z,4.77
2018-06-11T12:16:53.170Z,4.33
2018-06-11T12:19:22.040Z,5.20
2018-06-11T12:21:50.878Z,3.40
2018-06-11T12:24:19.752Z,3.73
2018-06-11T12:26:48.605Z,4.20
2018-06-11T12:29:17.481Z,3.83
2018-06-11T12:31:46.357Z,3.67
2018-06-11T12:34:15.290Z,4.30
2018-06-11T12:36:44.201Z,3.95
2018-06-11T12:39:13.082Z,3.97
2018-06-11T12:41:41.977Z,3.90
2018-06-11T12:44:10.928Z,4.20
2018-06-11T12:46:39.939Z,4.37
2018-06-11T12:49:08.866Z,3.30
2018-06-11T12:51:37.733Z,3.83
2018-06-11T12:54:06.660Z,3.50
2018-06-11T12:56:35.582Z,4.00
2018-06-11T12:59:04.486Z,4.10
2018-06-11T13:01:33.386Z,3.97
2018-06-11T13:04:02.284Z,3.80
2018-06-11T13:06:31.102Z,3.83
2018-06-11T13:08:59.969Z,4.30
2018-06-11T13:11:28.849Z,3.93
2018-06-11T13:13:57.743Z,4.10
2018-06-11T13:16:26.606Z,4.30
2018-06-11T13:18:55.545Z,3.97
2018-06-11T13:21:24.447Z,3.80
2018-06-11T13:23:53.372Z,4.37
2018-06-11T13:26:22.281Z,4.27
2018-06-11T13:28:51.240Z,4.20
2018-06-11T13:31:20.100Z,4.60
2018-06-11T13:33:49.001Z,3.93
2018-06-11T13:36:17.848Z,3.50
2018-06-11T13:38:46.799Z,3.57
2018-06-11T13:41:15.802Z,3.80
2018-06-11T13:43:44.746Z,3.73
2018-06-11T13:46:13.749Z,3.77
2018-06-11T13:48:42.635Z,4.10
2018-06-11T13:51:11.562Z,4.13
2018-06-11T13:54:01.970Z,4.90
2018-06-11T13:56:30.816Z,4.53
2018-06-11T13:58:59.685Z,5.63
2018-06-11T14:01:28.600Z,3.90
2018-06-11T14:03:57.502Z,4.70
2018-06-11T14:06:26.359Z,4.80
2018-06-11T14:08:55.235Z,5.20
2018-06-11T14:11:24.142Z,5.10
2018-06-11T14:13:52.984Z,5.00
2018-06-11T14:16:21.887Z,4.67
2018-06-11T14:18:50.711Z,4.60
2018-06-11T14:21:19.575Z,4.30
2018-06-11T14:23:48.488Z,4.63
2018-06-11T14:26:17.430Z,4.30
2018-06-11T14:28:46.351Z,3.80
2018-06-11T14:31:15.223Z,3.83
2018-06-11T14:33:44.121Z,4.17
2018-06-11T14:36:13.000Z,4.10
2018-06-11T14:38:41.884Z,4.47
2018-06-11T14:41:10.794Z,4.35
2018-06-11T14:43:39.726Z,4.30
2018-06-11T14:46:08.802Z,4.00
2018-06-11T14:48:37.651Z,3.63
2018-06-11T14:51:06.558Z,3.90
2018-06-11T14:53:35.424Z,3.90
2018-06-11T14:56:04.244Z,4.70
2018-06-11T14:58:33.122Z,3.90
2018-06-11T15:01:01.977Z,4.20
2018-06-11T15:03:30.891Z,4.05
2018-06-11T15:05:59.762Z,4.10
2018-06-11T15:08:28.590Z,4.60
2018-06-11T15:10:57.448Z,4.20
2018-06-11T15:13:26.317Z,4.33
2018-06-11T15:15:55.150Z,4.60
2018-06-11T15:18:24.010Z,4.37
2018-06-11T15:20:52.979Z,4.30
2018-06-11T15:23:21.821Z,4.28
2018-06-11T15:25:50.769Z,4.63
2018-06-11T15:28:19.642Z,4.80
2018-06-11T15:30:48.521Z,4.23
2018-06-11T15:33:17.404Z,3.90
2018-06-11T15:35:46.387Z,4.50
2018-06-11T15:38:16.177Z,4.44
2018-06-11T15:40:45.009Z,4.60
2018-06-11T15:43:13.942Z,4.72
2018-06-11T15:45:42.860Z,5.03
2018-06-11T15:48:11.898Z,4.77
2018-06-11T15:50:40.725Z,5.10
2018-06-11T15:53:10.015Z,4.60
2018-06-11T15:55:39.200Z,4.83
2018-06-11T15:58:08.198Z,5.23
2018-06-11T16:00:37.177Z,4.55
2018-06-11T16:03:06.091Z,4.70
2018-06-11T16:05:34.984Z,5.15
2018-06-11T16:08:03.913Z,5.17
2018-06-11T16:10:32.803Z,4.08
2018-06-11T16:13:01.654Z,4.57
2018-06-11T16:15:30.561Z,5.67
2018-06-11T16:17:59.631Z,4.53
2018-06-11T16:20:28.549Z,4.60
2018-06-11T16:22:57.590Z,4.93
2018-06-11T16:25:26.956Z,6.30
2018-06-11T16:27:55.802Z,4.67
2018-06-11T16:30:24.737Z,6.10
2018-06-11T16:32:53.967Z,5.60
2018-06-11T16:35:22.835Z,5.55
2018-06-11T16:37:51.685Z,5.00
2018-06-11T16:40:20.534Z,4.77
2018-06-11T16:42:49.492Z,4.90
2018-06-11T16:45:18.414Z,5.43
2018-06-11T16:47:47.230Z,5.30
2018-06-11T16:50:17.630Z,4.47
2018-06-11T16:52:58.120Z,5.10
2018-06-11T16:55:38.284Z,5.23
2018-06-11T16:58:08.703Z,5.20
2018-06-11T17:00:38.670Z,5.20
2018-06-11T17:03:07.735Z,5.30
2018-06-11T17:05:36.661Z,5.70
2018-06-11T17:08:06.520Z,5.67
2018-06-11T17:10:36.648Z,5.80
2018-06-11T17:13:05.502Z,5.62
2018-06-11T17:15:34.805Z,5.60
2018-06-11T17:18:03.661Z,5.30
2018-06-11T17:20:32.592Z,4.80
2018-06-11T17:23:01.471Z,5.20
2018-06-11T17:25:30.430Z,6.03
2018-06-11T17:27:59.335Z,5.85
2018-06-11T17:30:28.511Z,4.97
2018-06-11T17:32:57.989Z,6.20
2018-06-11T17:35:28.141Z,5.30
2018-06-11T17:37:57.465Z,5.97
2018-06-11T17:40:27.038Z,6.17
2018-06-11T17:42:57.163Z,5.90
2018-06-11T17:45:26.078Z,5.65
2018-06-11T17:47:55.148Z,5.30
2018-06-11T17:50:24.163Z,5.93
2018-06-11T17:52:53.613Z,5.73
2018-06-11T17:55:23.014Z,6.10
2018-06-11T17:57:51.838Z,6.50
2018-06-11T18:00:20.855Z,6.43
2018-06-11T18:02:49.703Z,5.90
2018-06-11T18:05:18.554Z,5.97
2018-06-11T18:07:47.466Z,6.90
2018-06-11T18:10:16.384Z,6.17
2018-06-11T18:12:45.268Z,8.40
2018-06-11T18:15:14.269Z,5.50
2018-06-11T18:17:43.249Z,6.37
2018-06-11T18:20:12.132Z,6.70
2018-06-11T18:22:41.037Z,6.40
2018-06-11T18:25:10.020Z,6.63
2018-06-11T18:27:38.888Z,5.77
2018-06-11T18:30:07.997Z,6.62
2018-06-11T18:32:36.842Z,6.83
2018-06-11T18:35:05.802Z,5.80
2018-06-11T18:37:34.738Z,6.77
2018-06-11T18:40:03.663Z,6.87
2018-06-11T18:42:32.854Z,6.47
2018-06-11T18:45:01.783Z,7.35
2018-06-11T18:47:31.340Z,7.22
2018-06-11T18:50:00.279Z,6.50
2018-06-11T18:52:29.143Z,6.55
2018-06-11T18:54:58.000Z,6.25
2018-06-11T18:57:26.991Z,6.55
2018-06-11T18:59:55.992Z,5.73
2018-06-11T19:02:26.209Z,5.87
2018-06-11T19:04:55.031Z,6.77
2018-06-11T19:07:24.055Z,5.80
2018-06-11T19:09:52.947Z,6.70
2018-06-11T19:12:22.483Z,5.87
2018-06-11T19:14:53.040Z,6.40
2018-06-11T19:17:22.059Z,7.63
2018-06-11T19:19:50.936Z,5.40
2018-06-11T19:22:19.896Z,6.60
2018-06-11T19:24:50.389Z,5.87
2018-06-11T19:27:19.379Z,6.23
2018-06-11T19:29:49.444Z,6.40
2018-06-11T19:32:19.240Z,6.27
2018-06-11T19:34:48.185Z,6.12
2018-06-11T19:37:17.532Z,6.20
2018-06-11T19:39:46.465Z,6.53
2018-06-11T19:42:15.589Z,6.70
2018-06-11T19:44:44.626Z,6.70
2018-06-11T19:47:13.516Z,7.13
2018-06-11T19:49:44.170Z,8.73
2018-06-11T19:52:13.059Z,7.40
2018-06-11T19:54:42.576Z,6.40
2018-06-11T19:57:11.470Z,7.30
2018-06-11T19:59:40.419Z,6.40
2018-06-11T20:02:09.305Z,6.07
2018-06-11T20:04:39.357Z,6.70
2018-06-11T20:07:08.967Z,5.53
2018-06-11T20:09:37.885Z,6.40
2018-06-11T20:12:08.754Z,6.63
2018-06-11T20:14:37.653Z,6.80
2018-06-11T20:17:06.555Z,5.95
2018-06-11T20:19:35.717Z,5.40
2018-06-11T20:22:05.374Z,5.70
2018-06-11T20:24:34.252Z,5.30
2018-06-11T20:27:03.217Z,5.37
2018-06-11T20:29:32.153Z,5.30
2018-06-11T20:32:01.174Z,5.12
2018-06-11T20:34:30.040Z,5.08
2018-06-11T20:37:00.363Z,5.57
2018-06-11T20:39:32.812Z,4.83
2018-06-11T20:42:01.899Z,4.63
2018-06-11T20:44:31.819Z,4.57
2018-06-11T20:47:00.704Z,4.60
2018-06-11T20:49:29.664Z,4.33
2018-06-11T20:51:59.132Z,4.73
2018-06-11T20:54:29.610Z,4.40
2018-06-11T20:56:59.973Z,5.17
2018-06-11T20:59:30.094Z,4.00
2018-06-11T21:01:59.423Z,4.67
2018-06-11T21:04:29.691Z,4.40
2018-06-11T21:06:59.573Z,4.47
2018-06-11T21:09:28.511Z,4.87
2018-06-11T21:11:57.449Z,4.90
2018-06-11T21:14:26.322Z,4.97
2018-06-11T21:16:56.366Z,4.83
2018-06-11T21:19:25.251Z,5.10
2018-06-11T21:21:54.151Z,4.62
2018-06-11T21:24:24.270Z,4.80
2018-06-11T21:26:53.146Z,4.67
2018-06-11T21:29:21.977Z,4.57
2018-06-11T21:31:51.990Z,4.42
2018-06-11T21:34:20.901Z,4.47
2018-06-11T21:36:49.759Z,4.45
2018-06-11T21:39:18.704Z,4.30
2018-06-11T21:41:47.642Z,4.90
2018-06-11T21:44:18.067Z,4.03
2018-06-11T21:46:47.017Z,4.72
2018-06-11T21:49:16.062Z,5.00
2018-06-11T21:51:44.941Z,5.40
2018-06-11T21:54:13.888Z,4.37
2018-06-11T21:56:42.772Z,5.03
2018-06-11T21:59:11.671Z,5.20
2018-06-11T22:01:40.517Z,6.08
2018-06-11T22:04:09.437Z,5.77
2018-06-11T22:06:38.468Z,5.63
2018-06-11T22:09:08.942Z,5.60
2018-06-11T22:11:37.950Z,6.53
2018-06-11T22:14:06.989Z,6.10
2018-06-11T22:16:35.942Z,6.47
2018-06-11T22:19:04.878Z,5.20
2018-06-11T22:21:33.854Z,5.53
2018-06-11T22:24:02.817Z,5.28
2018-06-11T22:26:31.761Z,6.05
2018-06-11T22:29:00.749Z,5.07
2018-06-11T22:31:30.525Z,5.40
2018-06-11T22:33:59.492Z,5.57
2018-06-11T22:36:28.366Z,5.80
2018-06-11T22:38:57.267Z,5.15
2018-06-11T22:41:26.269Z,5.57
2018-06-11T22:43:55.184Z,5.93
2018-06-11T22:46:24.072Z,5.73
2018-06-11T22:48:52.970Z,6.00
2018-06-11T22:51:21.909Z,6.57
2018-06-11T22:53:50.743Z,5.43
2018-06-11T22:56:19.661Z,6.10
2018-06-11T22:58:48.525Z,5.80
2018-06-11T23:01:17.499Z,5.60
2018-06-11T23:03:46.330Z,5.67
2018-06-11T23:06:15.156Z,6.00
2018-06-11T23:08:44.058Z,5.27
2018-06-11T23:11:13.013Z,5.05
2018-06-11T23:13:41.921Z,5.05
2018-06-11T23:16:10.894Z,5.28
2018-06-11T23:18:40.317Z,4.80
2018-06-11T23:21:09.205Z,4.30
2018-06-11T23:23:38.118Z,3.87
2018-06-11T23:26:06.993Z,3.95
2018-06-11T23:28:35.918Z,3.73
2018-06-11T23:31:04.832Z,3.70
2018-06-11T23:33:33.653Z,3.70
2018-06-11T23:36:02.506Z,3.60
2018-06-11T23:38:31.417Z,2.70
2018-06-11T23:41:00.232Z,2.40
2018-06-11T23:43:29.108Z,3.10
2018-06-11T23:45:57.927Z,2.70
2018-06-11T23:48:26.753Z,3.17
2018-06-11T23:50:55.642Z,3.30
2018-06-11T23:53:24.531Z,3.30
2018-06-11T23:55:53.385Z,3.27
2018-06-11T23:58:22.239Z,2.70
